Time;durP1;ratioP1;P1;durP2;ratioP2;P2;SDS_P1;SDS_P2;PMS_P1;PMS_P2;Temp;Humidity;BMP_temperature;BMP_pressure;BME280_temperature;BME280_humidity;BME280_pressure;Samples;Min_cycle;Max_cycle;Signal;HPM_P1;HPM_P2
2021/10/03 00:02:13;;;;;;;0.50;0.30;;;16.20;99.90;;;;;;5035898;28;20485;-79
2021/10/03 00:04:43;;;;;;;0.50;0.40;;;16.10;99.90;;;;;;5036183;28;20465;-79
2021/10/03 00:07:11;;;;;;;1.37;1.20;;;16.10;99.90;;;;;;5036624;28;20465;-81
2021/10/03 00:09:37;;;;;;;0.50;0.30;;;16.10;99.90;;;;;;5036933;28;20482;-78
2021/10/03 00:12:04;;;;;;;0.50;0.30;;;16.10;99.90;;;;;;5036999;28;20463;-80
2021/10/03 00:14:31;;;;;;;0.50;0.30;;;16.10;99.90;;;;;;5036637;28;20484;-79
2021/10/03 00:16:58;;;;;;;1.67;1.10;;;16.10;99.90;;;;;;5034951;28;20670;-78
2021/10/03 00:19:25;;;;;;;0.50;0.40;;;16.10;99.90;;;;;;5035228;28;20453;-79
2021/10/03 00:21:53;;;;;;;0.50;0.30;;;16.10;99.90;;;;;;5034634;28;20542;-79
2021/10/03 00:24:20;;;;;;;0.80;0.80;;;16.10;99.90;;;;;;5034503;28;20446;-79
2021/10/03 00:26:47;;;;;;;0.50;0.30;;;16.20;99.90;;;;;;5035211;28;20453;-80
2021/10/03 00:29:14;;;;;;;0.50;0.30;;;16.10;99.90;;;;;;5034966;28;20439;-79
2021/10/03 00:31:40;;;;;;;0.50;0.40;;;16.10;99.90;;;;;;5033863;28;20438;-78
2021/10/03 00:34:07;;;;;;;0.50;0.40;;;16.20;99.90;;;;;;5034373;28;20438;-79
2021/10/03 00:36:34;;;;;;;0.60;0.60;;;16.30;99.90;;;;;;5034020;28;20440;-80
2021/10/03 00:39:02;;;;;;;0.83;0.83;;;16.30;99.90;;;;;;5034775;28;20817;-79
2021/10/03 00:41:29;;;;;;;1.20;0.90;;;16.30;99.90;;;;;;5033969;28;20450;-80
2021/10/03 00:43:56;;;;;;;0.50;0.40;;;16.30;99.90;;;;;;5034863;28;20540;-78
2021/10/03 00:46:23;;;;;;;2.83;0.90;;;16.30;99.90;;;;;;5034446;28;20530;-79
2021/10/03 00:48:49;;;;;;;0.50;0.47;;;16.30;99.90;;;;;;5034214;28;21003;-79
2021/10/03 00:51:16;;;;;;;1.03;1.03;;;16.30;99.90;;;;;;5034061;28;20439;-79
2021/10/03 00:53:43;;;;;;;0.50;0.40;;;16.30;99.90;;;;;;5034507;28;20518;-80
2021/10/03 00:56:15;;;;;;;0.50;0.30;;;16.30;99.90;;;;;;5033608;28;20446;-79
2021/10/03 00:58:42;;;;;;;1.13;1.13;;;16.30;99.90;;;;;;5033683;28;20438;-80
2021/10/03 01:01:09;;;;;;;0.77;0.60;;;16.30;99.90;;;;;;5033665;28;20493;-81
2021/10/03 01:03:36;;;;;;;0.97;0.83;;;16.30;99.90;;;;;;5033695;28;20479;-79
2021/10/03 01:06:04;;;;;;;0.50;0.33;;;16.30;99.90;;;;;;5033804;28;20749;-80
2021/10/03 01:08:30;;;;;;;1.47;0.97;;;16.30;99.90;;;;;;5033853;28;20505;-80
2021/10/03 01:10:57;;;;;;;0.50;0.30;;;16.30;99.90;;;;;;5032813;28;20454;-79
2021/10/03 01:13:25;;;;;;;0.50;0.30;;;16.30;99.90;;;;;;5033436;28;20839;-79
2021/10/03 01:15:54;;;;;;;0.50;0.30;;;16.30;99.90;;;;;;5049090;22;20827;-83
2021/10/03 01:18:21;;;;;;;0.50;0.30;;;16.40;99.90;;;;;;5037384;28;20852;-84
2021/10/03 01:20:49;;;;;;;1.17;1.17;;;16.50;99.90;;;;;;5038390;28;20442;-83
2021/10/03 01:23:17;;;;;;;0.50;0.40;;;16.60;99.90;;;;;;5037983;28;20484;-83
2021/10/03 01:25:47;;;;;;;0.50;0.40;;;16.60;99.90;;;;;;5021842;28;20547;-83
2021/10/03 01:28:15;;;;;;;2.50;0.70;;;16.60;99.90;;;;;;5018233;28;20435;-83
2021/10/03 01:30:46;;;;;;;0.50;0.40;;;16.70;99.90;;;;;;5016617;28;20447;-83
2021/10/03 01:33:12;;;;;;;0.50;0.40;;;16.80;99.90;;;;;;5020907;28;20417;-82
2021/10/03 01:35:39;;;;;;;0.50;0.30;;;16.80;99.90;;;;;;5032744;28;20462;-83
2021/10/03 01:38:07;;;;;;;0.50;0.43;;;16.90;99.90;;;;;;5023004;28;20442;-83
2021/10/03 01:40:36;;;;;;;0.50;0.40;;;16.80;99.90;;;;;;5016408;28;20833;-83
2021/10/03 01:43:03;;;;;;;0.60;0.60;;;16.80;99.90;;;;;;5017234;28;20510;-83
2021/10/03 01:45:29;;;;;;;0.73;0.73;;;16.80;99.90;;;;;;5016808;28;20447;-84
2021/10/03 01:48:09;;;;;;;0.70;0.67;;;16.80;99.90;;;;;;5016697;28;20446;-80
2021/10/03 01:50:39;;;;;;;4.60;1.30;;;16.80;99.90;;;;;;5016537;28;20420;-84
2021/10/03 01:53:07;;;;;;;1.07;0.97;;;16.80;99.90;;;;;;5016753;28;20460;-82
2021/10/03 01:55:35;;;;;;;0.60;0.50;;;16.80;99.90;;;;;;5015176;28;20479;-82
2021/10/03 01:58:02;;;;;;;0.60;0.50;;;16.80;99.90;;;;;;5017293;28;20443;-83
2021/10/03 02:00:29;;;;;;;0.60;0.40;;;16.90;99.90;;;;;;5016546;28;20498;-83
2021/10/03 02:02:58;;;;;;;0.60;0.50;;;16.90;99.90;;;;;;5015771;28;20479;-84
2021/10/03 02:05:25;;;;;;;0.57;0.50;;;17.00;99.90;;;;;;5016273;28;20456;-83
2021/10/03 02:07:52;;;;;;;0.50;0.40;;;17.00;99.90;;;;;;5015568;28;20444;-81
2021/10/03 02:10:19;;;;;;;0.50;0.30;;;17.00;99.90;;;;;;5020984;28;20440;-84
2021/10/03 02:12:48;;;;;;;0.50;0.30;;;17.10;99.90;;;;;;5021943;28;20444;-83
2021/10/03 02:15:15;;;;;;;0.50;0.30;;;17.10;99.90;;;;;;5022352;28;20472;-83
2021/10/03 02:17:42;;;;;;;0.50;0.30;;;17.10;99.90;;;;;;5020728;28;20475;-83
2021/10/03 02:20:09;;;;;;;0.60;0.50;;;17.10;99.90;;;;;;5020488;28;20455;-83
2021/10/03 02:22:37;;;;;;;0.70;0.70;;;17.20;99.90;;;;;;5021933;28;20451;-83
2021/10/03 02:25:04;;;;;;;0.50;0.40;;;17.20;99.90;;;;;;5022410;28;20463;-84
2021/10/03 02:27:31;;;;;;;0.60;0.50;;;17.20;99.90;;;;;;5021135;28;20451;-83
2021/10/03 02:29:59;;;;;;;1.03;0.93;;;17.20;99.90;;;;;;5021198;28;20436;-84
2021/10/03 02:32:26;;;;;;;1.60;1.10;;;17.20;99.90;;;;;;5021894;28;20439;-84
2021/10/03 02:34:52;;;;;;;1.27;0.97;;;17.20;99.90;;;;;;5021869;28;20997;-82
2021/10/03 02:37:19;;;;;;;0.90;0.63;;;17.20;99.90;;;;;;5022557;28;20444;-83
2021/10/03 02:39:46;;;;;;;0.77;0.60;;;17.20;99.90;;;;;;5021156;28;20446;-84
2021/10/03 02:42:12;;;;;;;0.60;0.37;;;17.30;99.90;;;;;;5020834;28;20478;-83
2021/10/03 02:44:39;;;;;;;0.50;0.40;;;17.30;99.90;;;;;;5020448;28;20492;-83
2021/10/03 02:47:11;;;;;;;0.60;0.50;;;17.20;99.90;;;;;;5019465;28;20452;-83
2021/10/03 02:49:38;;;;;;;1.33;1.23;;;17.10;99.90;;;;;;5020730;28;20977;-83
2021/10/03 02:52:06;;;;;;;0.60;0.57;;;17.00;99.90;;;;;;5019335;28;20450;-83
2021/10/03 02:54:33;;;;;;;0.50;0.47;;;17.00;99.90;;;;;;5019308;28;20454;-82
2021/10/03 02:56:59;;;;;;;0.50;0.30;;;17.00;99.90;;;;;;5019330;28;20449;-83
2021/10/03 02:59:26;;;;;;;1.47;0.40;;;17.00;99.90;;;;;;5018422;28;20444;-82
2021/10/03 03:01:53;;;;;;;1.83;1.27;;;17.00;99.90;;;;;;5018428;28;20444;-83
2021/10/03 03:04:21;;;;;;;0.60;0.50;;;16.90;99.90;;;;;;5017960;28;20996;-82
2021/10/03 03:06:47;;;;;;;0.50;0.40;;;16.80;99.90;;;;;;5018224;28;20850;-82
2021/10/03 03:09:14;;;;;;;1.13;0.50;;;16.70;99.90;;;;;;5021486;28;20440;-82
2021/10/03 03:11:41;;;;;;;1.10;0.97;;;16.60;99.90;;;;;;5020815;28;20439;-84
2021/10/03 03:14:09;;;;;;;0.50;0.40;;;16.60;99.90;;;;;;5018461;28;20964;-84
2021/10/03 03:16:43;;;;;;;0.70;0.60;;;16.50;99.90;;;;;;5020557;28;20436;-84
2021/10/03 03:19:09;;;;;;;0.50;0.30;;;16.40;99.90;;;;;;5019525;28;20474;-85
2021/10/03 03:21:38;;;;;;;1.17;1.17;;;16.30;99.90;;;;;;5018878;28;20925;-82
2021/10/03 03:24:05;;;;;;;0.60;0.60;;;16.20;99.90;;;;;;5018366;28;21018;-84
2021/10/03 03:26:32;;;;;;;1.53;1.37;;;16.10;99.90;;;;;;5019321;28;20442;-83
2021/10/03 03:28:59;;;;;;;0.73;0.70;;;16.10;99.90;;;;;;5019805;28;20813;-82
2021/10/03 03:31:26;;;;;;;0.50;0.40;;;16.00;99.90;;;;;;5018951;28;20439;-84
2021/10/03 03:33:53;;;;;;;0.53;0.40;;;16.00;99.90;;;;;;5022837;28;20438;-81
2021/10/03 03:36:20;;;;;;;0.50;0.37;;;15.90;99.90;;;;;;5031123;28;20431;-83
2021/10/03 03:38:48;;;;;;;0.80;0.80;;;15.90;99.90;;;;;;5019095;28;20435;-83
2021/10/03 03:41:15;;;;;;;0.80;0.80;;;15.90;99.90;;;;;;5020992;28;20443;-84
2021/10/03 03:43:43;;;;;;;2.00;1.13;;;15.90;99.90;;;;;;5021144;28;20483;-84
2021/10/03 03:46:10;;;;;;;0.60;0.60;;;15.90;99.90;;;;;;5019257;28;20464;-83
2021/10/03 03:48:37;;;;;;;0.70;0.70;;;15.80;99.90;;;;;;5020263;28;20440;-84
2021/10/03 03:51:04;;;;;;;4.57;1.33;;;15.80;99.90;;;;;;5019653;28;20448;-83
2021/10/03 03:53:32;;;;;;;0.50;0.33;;;15.80;99.90;;;;;;5019814;28;20489;-83
2021/10/03 03:56:00;;;;;;;1.20;1.10;;;15.90;99.90;;;;;;5019693;28;20478;-84
2021/10/03 03:58:27;;;;;;;1.27;0.70;;;16.00;99.90;;;;;;5020249;28;20474;-82
2021/10/03 04:00:54;;;;;;;0.87;0.87;;;16.00;99.90;;;;;;5019388;28;20451;-83
2021/10/03 04:03:20;;;;;;;0.60;0.60;;;16.10;99.90;;;;;;5019976;28;20450;-84
2021/10/03 04:05:47;;;;;;;0.50;0.40;;;16.30;99.90;;;;;;5017744;28;20513;-83
2021/10/03 04:08:14;;;;;;;0.50;0.30;;;16.30;99.90;;;;;;5019814;28;20949;-84
2021/10/03 04:10:40;;;;;;;0.70;0.40;;;16.30;99.90;;;;;;5019243;28;20447;-84
2021/10/03 04:13:08;;;;;;;0.60;0.57;;;16.40;99.90;;;;;;5018167;28;20822;-84
2021/10/03 04:15:36;;;;;;;0.60;0.53;;;16.40;99.90;;;;;;5020321;28;20526;-84
2021/10/03 04:18:03;;;;;;;0.50;0.50;;;16.40;99.90;;;;;;5019988;28;20949;-83
2021/10/03 04:20:30;;;;;;;0.73;0.57;;;16.40;99.90;;;;;;5019616;28;20864;-83
2021/10/03 04:22:56;;;;;;;0.77;0.60;;;16.40;99.90;;;;;;5019943;28;20447;-82
2021/10/03 04:25:23;;;;;;;1.33;0.93;;;16.40;99.90;;;;;;5021224;28;20483;-84
2021/10/03 04:27:50;;;;;;;0.50;0.40;;;16.40;99.90;;;;;;5020270;28;20515;-82
2021/10/03 04:30:18;;;;;;;2.97;2.83;;;16.30;99.90;;;;;;5019598;28;20444;-83
2021/10/03 04:32:45;;;;;;;0.50;0.40;;;16.30;99.90;;;;;;5019600;28;20439;-83
2021/10/03 04:35:11;;;;;;;0.50;0.40;;;16.30;99.90;;;;;;5021476;28;20451;-83
2021/10/03 04:37:38;;;;;;;0.90;0.87;;;16.40;99.90;;;;;;5019589;28;20455;-82
2021/10/03 04:40:07;;;;;;;1.47;1.37;;;16.40;99.90;;;;;;5015457;28;20440;-80
2021/10/03 04:42:34;;;;;;;0.50;0.40;;;16.40;99.90;;;;;;5018592;28;20448;-83
2021/10/03 04:45:00;;;;;;;0.50;0.40;;;16.40;99.90;;;;;;5019309;28;21099;-83
2021/10/03 04:47:28;;;;;;;0.60;0.57;;;16.40;99.90;;;;;;5019688;28;20458;-83
2021/10/03 04:49:56;;;;;;;1.53;1.43;;;16.40;99.90;;;;;;5018731;28;20443;-84
2021/10/03 04:52:25;;;;;;;0.60;0.60;;;16.60;99.90;;;;;;5018207;28;20800;-84
2021/10/03 04:54:52;;;;;;;0.60;0.60;;;16.60;99.90;;;;;;5019228;28;20465;-83
2021/10/03 04:57:19;;;;;;;0.57;0.47;;;16.70;99.90;;;;;;5019096;28;20547;-83
2021/10/03 04:59:46;;;;;;;1.37;1.27;;;16.80;99.90;;;;;;5018758;28;20447;-82
2021/10/03 05:02:13;;;;;;;0.73;0.73;;;16.80;99.90;;;;;;5018550;28;20449;-83
2021/10/03 05:04:41;;;;;;;0.60;0.40;;;16.80;99.90;;;;;;5018607;28;20490;-83
2021/10/03 05:07:08;;;;;;;0.50;0.40;;;16.90;99.90;;;;;;5019657;28;20448;-83
2021/10/03 05:09:34;;;;;;;0.50;0.40;;;16.90;99.90;;;;;;5019269;28;20443;-84
2021/10/03 05:12:01;;;;;;;0.50;0.40;;;16.90;99.90;;;;;;5018697;28;20446;-83
2021/10/03 05:14:28;;;;;;;1.40;0.80;;;17.00;99.90;;;;;;5019146;28;20489;-83
2021/10/03 05:16:55;;;;;;;1.80;1.70;;;17.00;99.90;;;;;;5025715;28;20886;-83
2021/10/03 05:19:22;;;;;;;1.10;0.50;;;17.00;99.90;;;;;;5025133;28;20447;-83
2021/10/03 05:21:50;;;;;;;0.50;0.30;;;17.00;99.90;;;;;;5023785;28;20443;-83
2021/10/03 05:24:17;;;;;;;1.67;1.57;;;17.00;99.90;;;;;;5024250;28;20491;-83
2021/10/03 05:26:43;;;;;;;0.70;0.70;;;17.10;99.90;;;;;;5022900;28;20443;-84
2021/10/03 05:29:10;;;;;;;0.50;0.40;;;17.20;99.90;;;;;;5025654;28;20443;-83
2021/10/03 05:31:37;;;;;;;0.50;0.30;;;17.20;99.90;;;;;;5024482;28;20467;-83
2021/10/03 05:34:04;;;;;;;0.60;0.50;;;17.20;99.90;;;;;;5022204;28;20448;-83
2021/10/03 05:36:31;;;;;;;0.57;0.47;;;17.20;99.90;;;;;;5024200;28;20992;-83
2021/10/03 05:39:00;;;;;;;0.83;0.80;;;17.20;99.90;;;;;;5027967;28;20885;-82
2021/10/03 05:41:27;;;;;;;2.50;1.00;;;17.10;99.90;;;;;;5029133;28;20467;-82
2021/10/03 05:43:54;;;;;;;0.50;0.40;;;16.90;99.90;;;;;;5026916;28;20469;-83
2021/10/03 05:46:21;;;;;;;0.50;0.43;;;16.70;99.90;;;;;;5024768;28;20439;-84
2021/10/03 05:48:47;;;;;;;0.50;0.30;;;16.60;99.90;;;;;;5025754;28;20439;-84
2021/10/03 05:51:14;;;;;;;0.50;0.30;;;16.50;99.90;;;;;;5023186;28;20447;-83
2021/10/03 05:53:41;;;;;;;0.70;0.70;;;16.40;99.90;;;;;;5022788;28;20432;-84
2021/10/03 05:56:09;;;;;;;1.23;0.93;;;16.40;99.90;;;;;;5022447;28;20467;-82
2021/10/03 05:58:36;;;;;;;0.90;0.90;;;16.40;99.90;;;;;;5021211;28;20448;-84
2021/10/03 06:01:03;;;;;;;0.60;0.40;;;16.30;99.90;;;;;;5020537;28;20941;-80
2021/10/03 06:03:30;;;;;;;0.70;0.70;;;16.30;99.90;;;;;;5020483;28;20454;-84
2021/10/03 06:05:56;;;;;;;0.50;0.40;;;16.30;99.90;;;;;;5019777;28;20522;-83
2021/10/03 06:08:23;;;;;;;0.50;0.40;;;16.30;99.90;;;;;;5019548;28;20443;-83
2021/10/03 06:10:50;;;;;;;0.50;0.30;;;16.30;99.90;;;;;;5017762;28;20450;-84
2021/10/03 06:13:18;;;;;;;0.50;0.40;;;16.30;99.90;;;;;;5017868;28;20451;-83
2021/10/03 06:15:45;;;;;;;0.50;0.40;;;16.30;99.90;;;;;;5018760;28;20463;-83
2021/10/03 06:18:11;;;;;;;0.73;0.73;;;16.20;99.90;;;;;;5018514;28;20451;-81
2021/10/03 06:20:38;;;;;;;0.50;0.40;;;16.20;99.90;;;;;;5017854;28;20451;-83
2021/10/03 06:23:06;;;;;;;0.60;0.50;;;16.20;99.90;;;;;;5018833;28;20444;-83
2021/10/03 06:25:33;;;;;;;0.50;0.30;;;16.20;99.90;;;;;;5021733;28;20478;-83
2021/10/03 06:28:00;;;;;;;0.50;0.40;;;16.10;99.90;;;;;;5025419;28;20436;-81
2021/10/03 06:30:28;;;;;;;1.27;1.17;;;16.10;99.90;;;;;;5025843;28;20446;-82
2021/10/03 06:32:56;;;;;;;0.77;0.63;;;16.10;99.90;;;;;;5025334;28;20439;-83
2021/10/03 06:35:23;;;;;;;0.50;0.30;;;16.10;99.90;;;;;;5028070;28;20459;-83
2021/10/03 06:37:49;;;;;;;0.50;0.40;;;16.10;99.90;;;;;;5026108;28;20830;-83
2021/10/03 06:40:17;;;;;;;0.50;0.40;;;16.10;99.90;;;;;;5024467;28;20487;-83
2021/10/03 06:42:44;;;;;;;0.60;0.60;;;16.00;99.90;;;;;;5029589;28;20447;-82
2021/10/03 06:45:11;;;;;;;0.50;0.40;;;16.10;99.90;;;;;;5026873;28;20529;-83
2021/10/03 06:47:39;;;;;;;0.50;0.40;;;16.00;99.90;;;;;;5021046;28;20462;-84
2021/10/03 06:50:07;;;;;;;0.50;0.40;;;16.00;99.90;;;;;;5017798;28;20502;-81
2021/10/03 06:52:34;;;;;;;0.57;0.50;;;16.00;99.90;;;;;;5016741;28;20447;-83
2021/10/03 06:55:00;;;;;;;1.10;0.70;;;16.10;99.90;;;;;;5020288;28;20468;-82
2021/10/03 06:57:27;;;;;;;1.57;1.47;;;16.00;99.90;;;;;;5020423;28;20494;-83
2021/10/03 06:59:54;;;;;;;0.53;0.43;;;16.10;99.90;;;;;;5022006;28;20455;-83
2021/10/03 07:02:23;;;;;;;2.53;1.33;;;16.10;99.90;;;;;;5021073;28;20454;-83
2021/10/03 07:04:53;;;;;;;0.57;0.40;;;16.10;99.90;;;;;;5020662;28;20510;-82
2021/10/03 07:07:20;;;;;;;0.90;0.90;;;16.10;99.90;;;;;;5020157;28;20445;-82
2021/10/03 07:09:47;;;;;;;0.50;0.30;;;16.10;99.90;;;;;;5019244;28;20447;-84
2021/10/03 07:12:14;;;;;;;5.33;2.37;;;16.10;99.90;;;;;;5020200;28;20469;-82
2021/10/03 07:14:44;;;;;;;0.70;0.53;;;16.10;99.90;;;;;;5021279;28;20864;-80
2021/10/03 07:17:11;;;;;;;0.50;0.30;;;16.10;99.90;;;;;;5020109;28;20436;-83
2021/10/03 07:19:38;;;;;;;0.87;0.87;;;16.10;99.90;;;;;;5019368;28;20448;-83
2021/10/03 07:22:07;;;;;;;0.50;0.40;;;16.10;99.90;;;;;;5020602;28;20482;-83
2021/10/03 07:24:35;;;;;;;0.50;0.30;;;16.10;99.90;;;;;;5022553;28;20625;-84
2021/10/03 07:27:03;;;;;;;0.50;0.30;;;16.10;99.90;;;;;;5023512;28;20447;-83
2021/10/03 07:29:29;;;;;;;0.50;0.40;;;16.10;99.90;;;;;;5022780;28;20443;-84
2021/10/03 07:31:56;;;;;;;1.17;0.90;;;16.10;99.90;;;;;;5022858;28;20472;-83
2021/10/03 07:34:23;;;;;;;0.50;0.40;;;16.10;99.90;;;;;;5022005;28;20467;-84
2021/10/03 07:36:50;;;;;;;0.50;0.30;;;16.20;99.90;;;;;;5022277;28;20447;-83
2021/10/03 07:39:18;;;;;;;0.50;0.40;;;16.10;99.90;;;;;;5021520;28;20458;-81
2021/10/03 07:41:44;;;;;;;0.50;0.30;;;16.20;99.90;;;;;;5020187;28;20439;-82
2021/10/03 07:44:11;;;;;;;0.50;0.30;;;16.20;99.90;;;;;;5019207;28;20444;-83
2021/10/03 07:46:38;;;;;;;0.83;0.83;;;16.10;99.90;;;;;;5020075;28;20540;-83
2021/10/03 07:49:04;;;;;;;0.87;0.87;;;16.20;99.90;;;;;;5022161;28;20443;-81
2021/10/03 07:51:31;;;;;;;1.47;1.37;;;16.20;99.90;;;;;;5025391;28;20954;-81
2021/10/03 07:53:58;;;;;;;2.07;1.97;;;16.20;99.90;;;;;;5025950;28;20460;-83
2021/10/03 07:56:26;;;;;;;0.90;0.80;;;16.20;99.90;;;;;;5025044;28;20443;-83
2021/10/03 07:58:53;;;;;;;0.50;0.40;;;16.20;99.90;;;;;;5022529;28;20448;-85
2021/10/03 08:01:21;;;;;;;1.07;0.53;;;16.20;99.90;;;;;;5022425;28;21015;-85
2021/10/03 08:03:47;;;;;;;0.50;0.40;;;16.20;99.90;;;;;;5021444;28;20499;-84
2021/10/03 08:06:15;;;;;;;0.70;0.50;;;16.20;99.90;;;;;;5020393;28;20475;-83
2021/10/03 08:08:42;;;;;;;0.50;0.30;;;16.20;99.90;;;;;;5022372;28;20450;-84
2021/10/03 08:11:08;;;;;;;0.80;0.80;;;16.20;99.90;;;;;;5021965;28;20824;-83
2021/10/03 08:13:36;;;;;;;0.90;0.90;;;16.20;99.90;;;;;;5031866;28;20432;-84
2021/10/03 08:16:04;;;;;;;0.50;0.33;;;16.20;99.90;;;;;;5023236;28;20463;-84
2021/10/03 08:18:31;;;;;;;5.30;1.60;;;16.20;99.90;;;;;;5022423;28;20428;-84
2021/10/03 08:20:57;;;;;;;0.50;0.30;;;16.20;99.90;;;;;;5021893;28;20455;-84
2021/10/03 08:23:24;;;;;;;0.50;0.30;;;16.20;99.90;;;;;;5020858;28;20444;-84
2021/10/03 08:25:51;;;;;;;0.50;0.50;;;16.20;99.90;;;;;;5021751;28;20483;-84
2021/10/03 08:28:18;;;;;;;1.73;0.73;;;16.20;99.90;;;;;;5023078;28;20446;-83
2021/10/03 08:30:46;;;;;;;0.50;0.30;;;16.20;99.90;;;;;;5022236;28;20451;-84
2021/10/03 08:33:13;;;;;;;0.50;0.30;;;16.20;99.90;;;;;;5023662;28;20463;-84
2021/10/03 08:35:40;;;;;;;1.80;1.63;;;16.20;99.90;;;;;;5021936;28;20467;-85
2021/10/03 08:38:07;;;;;;;2.70;1.00;;;16.20;99.90;;;;;;5021796;28;20452;-84
2021/10/03 08:40:34;;;;;;;0.70;0.40;;;16.20;99.90;;;;;;5020352;28;20439;-84
2021/10/03 08:43:01;;;;;;;3.80;2.40;;;16.20;99.90;;;;;;5024346;28;20474;-84
2021/10/03 08:45:27;;;;;;;0.57;0.47;;;16.10;99.90;;;;;;5022980;28;20484;-84
2021/10/03 08:47:56;;;;;;;0.73;0.50;;;16.20;99.90;;;;;;5022235;28;20865;-83
2021/10/03 08:50:22;;;;;;;0.50;0.40;;;16.20;99.90;;;;;;5020879;28;20921;-84
2021/10/03 08:52:49;;;;;;;0.83;0.83;;;16.20;99.90;;;;;;5021794;28;20439;-83
2021/10/03 08:55:18;;;;;;;0.50;0.40;;;16.20;99.90;;;;;;5021184;28;20462;-84
2021/10/03 08:57:45;;;;;;;0.70;0.70;;;16.20;99.90;;;;;;5020927;28;20455;-84
2021/10/03 09:00:16;;;;;;;1.10;1.00;;;16.30;99.90;;;;;;5021119;28;20462;-84
2021/10/03 09:03:05;;;;;;;0.60;0.60;;;16.30;99.90;;;;;;5019145;28;20901;-85
2021/10/03 09:05:34;;;;;;;0.60;0.60;;;16.30;99.90;;;;;;5019351;28;20566;-84
2021/10/03 09:08:12;;;;;;;0.70;0.50;;;16.30;99.90;;;;;;5022441;28;20439;-83
2021/10/03 09:10:55;;;;;;;1.53;1.43;;;16.30;99.90;;;;;;5021957;28;20478;-82
2021/10/03 09:13:23;;;;;;;0.70;0.60;;;16.30;99.90;;;;;;5023261;28;20447;-84
2021/10/03 09:16:06;;;;;;;0.50;0.30;;;16.30;99.90;;;;;;5023344;28;20475;-83
2021/10/03 09:18:41;;;;;;;1.03;1.03;;;16.30;99.90;;;;;;5019475;28;20436;-84
2021/10/03 09:21:08;;;;;;;1.90;1.33;;;16.30;99.90;;;;;;5022009;28;20785;-83
2021/10/03 09:23:35;;;;;;;0.50;0.30;;;16.30;99.90;;;;;;5022594;28;20432;-83
2021/10/03 09:26:03;;;;;;;0.60;0.57;;;16.30;99.90;;;;;;5019634;28;20486;-82
2021/10/03 09:28:33;;;;;;;0.60;0.57;;;16.40;99.90;;;;;;5019652;28;20446;-85
2021/10/03 09:31:04;;;;;;;0.50;0.30;;;16.40;99.90;;;;;;5022166;28;20455;-81
2021/10/03 09:33:48;;;;;;;0.50;0.40;;;16.40;99.90;;;;;;5023652;28;20905;-83
2021/10/03 09:36:16;;;;;;;0.67;0.60;;;16.40;99.90;;;;;;5022825;28;20550;-83
2021/10/03 09:38:55;;;;;;;0.50;0.40;;;16.40;99.90;;;;;;5022118;28;20446;-76
2021/10/03 09:41:24;;;;;;;1.03;0.70;;;16.40;99.90;;;;;;5023278;28;20419;-86
2021/10/03 09:43:54;;;;;;;0.50;0.37;;;16.50;99.90;;;;;;5023106;28;20435;-81
2021/10/03 09:46:35;;;;;;;0.70;0.50;;;16.50;99.90;;;;;;5021819;28;20482;-82
2021/10/03 09:49:05;;;;;;;2.10;0.93;;;16.50;99.90;;;;;;5022295;28;20451;-82
2021/10/03 09:51:32;;;;;;;1.50;1.40;;;16.50;99.90;;;;;;5022704;28;20439;-84
2021/10/03 09:53:59;;;;;;;0.77;0.50;;;16.60;99.90;;;;;;5021708;28;20448;-81
2021/10/03 09:56:27;;;;;;;0.53;0.37;;;16.60;99.90;;;;;;5024077;28;20435;-82
2021/10/03 09:58:55;;;;;;;1.03;1.03;;;16.70;99.90;;;;;;5022300;28;20443;-82
2021/10/03 10:01:22;;;;;;;0.50;0.30;;;16.70;99.90;;;;;;5020247;28;20466;-82
2021/10/03 10:03:50;;;;;;;0.83;0.83;;;16.80;99.90;;;;;;5016696;28;20830;-82
2021/10/03 10:06:18;;;;;;;0.50;0.40;;;16.80;99.90;;;;;;5020329;28;21021;-85
2021/10/03 10:08:46;;;;;;;2.27;2.07;;;16.80;99.90;;;;;;5021114;28;20493;-85
2021/10/03 10:11:17;;;;;;;1.17;1.07;;;16.90;99.90;;;;;;5019725;28;20443;-84
2021/10/03 10:13:51;;;;;;;0.50;0.30;;;16.90;99.90;;;;;;5020214;28;20479;-82
2021/10/03 10:16:30;;;;;;;2.20;0.83;;;16.90;99.90;;;;;;5019845;28;20474;-83
2021/10/03 10:19:28;;;;;;;1.00;0.70;;;17.00;99.90;;;;;;5022524;28;20804;-84
2021/10/03 10:22:31;;;;;;;2.10;0.93;;;17.00;99.90;;;;;;5021060;28;20462;-84
2021/10/03 10:25:00;;;;;;;7.83;1.33;;;17.10;99.90;;;;;;5018944;28;20476;-82
2021/10/03 10:27:59;;;;;;;2.07;0.67;;;17.10;99.90;;;;;;5024778;28;20439;-83
2021/10/03 10:30:26;;;;;;;2.00;0.90;;;17.10;99.90;;;;;;5025598;28;20499;-82
2021/10/03 10:33:10;;;;;;;0.90;0.90;;;17.10;99.90;;;;;;5027325;28;20524;-83
2021/10/03 10:35:41;;;;;;;0.50;0.37;;;17.10;99.90;;;;;;5028834;28;20531;-83
2021/10/03 10:38:19;;;;;;;0.50;0.40;;;17.10;99.90;;;;;;5034096;28;20428;-82
2021/10/03 10:40:49;;;;;;;0.50;0.40;;;17.10;99.90;;;;;;5025084;28;20515;-83
2021/10/03 10:43:43;;;;;;;0.77;0.77;;;17.20;99.90;;;;;;5025630;28;20442;-84
2021/10/03 10:46:44;;;;;;;1.30;0.70;;;17.10;99.90;;;;;;5024634;28;20486;-83
2021/10/03 10:49:42;;;;;;;0.93;0.93;;;17.10;99.90;;;;;;5025189;28;20441;-83
2021/10/03 10:52:31;;;;;;;0.97;0.60;;;17.20;99.90;;;;;;5024750;28;20435;-82
2021/10/03 10:55:25;;;;;;;0.50;0.40;;;17.10;99.90;;;;;;5024951;28;20465;-84
2021/10/03 10:58:10;;;;;;;0.50;0.50;;;17.10;99.90;;;;;;5025451;28;20473;-83
2021/10/03 11:00:48;;;;;;;0.87;0.43;;;17.10;99.90;;;;;;5025341;28;20438;-84
2021/10/03 11:03:15;;;;;;;1.50;1.50;;;17.00;99.90;;;;;;5025000;28;20424;-84
2021/10/03 11:05:46;;;;;;;2.23;2.03;;;17.10;99.90;;;;;;5025605;28;20480;-84
2021/10/03 11:08:14;;;;;;;2.50;2.37;;;17.10;99.90;;;;;;5027446;28;20539;-84
2021/10/03 11:11:11;;;;;;;0.60;0.50;;;17.10;99.90;;;;;;5029018;28;20440;-84
2021/10/03 11:13:44;;;;;;;1.33;1.17;;;17.10;99.90;;;;;;5024238;28;20451;-84
2021/10/03 11:16:24;;;;;;;0.50;0.40;;;17.20;99.90;;;;;;5027122;28;20470;-83
2021/10/03 11:18:51;;;;;;;1.20;1.10;;;17.20;99.90;;;;;;5027201;28;20462;-83
2021/10/03 11:21:23;;;;;;;1.70;1.60;;;17.20;99.90;;;;;;5026762;28;20436;-83
2021/10/03 11:23:50;;;;;;;0.90;0.90;;;17.20;99.90;;;;;;5025499;28;20424;-83
2021/10/03 11:26:17;;;;;;;0.60;0.60;;;17.30;99.90;;;;;;5025798;28;20490;-84
2021/10/03 11:28:54;;;;;;;0.50;0.40;;;17.30;99.90;;;;;;5025474;28;20512;-84
2021/10/03 11:31:38;;;;;;;0.97;0.77;;;17.30;99.90;;;;;;5025874;28;20443;-84
2021/10/03 11:34:06;;;;;;;1.23;1.13;;;17.40;99.90;;;;;;5025706;28;20472;-86
2021/10/03 11:36:34;;;;;;;0.97;0.97;;;17.40;99.90;;;;;;5025218;28;20441;-84
2021/10/03 11:39:01;;;;;;;0.50;0.30;;;17.40;99.90;;;;;;5026580;28;20444;-84
2021/10/03 11:41:28;;;;;;;1.03;1.00;;;17.40;99.90;;;;;;5024573;28;20439;-83
2021/10/03 11:43:56;;;;;;;0.50;0.30;;;17.40;99.90;;;;;;5023918;28;20447;-83
2021/10/03 11:46:22;;;;;;;2.80;1.43;;;17.40;99.90;;;;;;5025766;28;20475;-81
2021/10/03 11:48:51;;;;;;;0.53;0.40;;;17.40;99.90;;;;;;5025607;28;20452;-84
2021/10/03 11:51:18;;;;;;;0.80;0.70;;;17.50;99.90;;;;;;5024117;28;20473;-84
2021/10/03 11:53:47;;;;;;;4.03;1.97;;;17.40;99.90;;;;;;5025043;28;20437;-83
2021/10/03 11:56:15;;;;;;;2.10;1.77;;;17.40;99.90;;;;;;5025645;28;20500;-83
2021/10/03 11:58:43;;;;;;;0.50;0.40;;;17.50;99.90;;;;;;5025286;28;20447;-84
2021/10/03 12:01:12;;;;;;;0.50;0.40;;;17.50;99.90;;;;;;5025463;28;20454;-84
2021/10/03 12:03:48;;;;;;;1.43;0.90;;;17.50;99.90;;;;;;5025587;28;21225;-83
2021/10/03 12:06:19;;;;;;;1.80;1.70;;;17.60;99.90;;;;;;5025683;28;20486;-84
2021/10/03 12:08:46;;;;;;;1.67;1.07;;;17.60;99.90;;;;;;5026053;28;20448;-84
2021/10/03 12:11:14;;;;;;;2.00;1.33;;;17.60;99.90;;;;;;5025691;28;20479;-84
2021/10/03 12:13:40;;;;;;;3.80;1.37;;;17.60;99.90;;;;;;5023718;28;20466;-84
2021/10/03 12:16:17;;;;;;;2.70;1.97;;;17.60;99.90;;;;;;5025661;28;20503;-83
2021/10/03 12:18:46;;;;;;;0.97;0.60;;;17.70;99.90;;;;;;5023823;28;20431;-83
2021/10/03 12:21:19;;;;;;;0.70;0.60;;;17.70;99.90;;;;;;5024123;28;20488;-84
2021/10/03 12:24:07;;;;;;;0.50;0.30;;;17.80;99.90;;;;;;5024510;28;20443;-84
2021/10/03 12:26:36;;;;;;;1.73;1.27;;;17.80;99.90;;;;;;5023969;28;20491;-84
2021/10/03 12:29:18;;;;;;;1.73;0.80;;;17.90;99.90;;;;;;5024441;28;20494;-80
2021/10/03 12:31:58;;;;;;;0.90;0.50;;;17.90;99.90;;;;;;5023191;28;20651;-82
2021/10/03 12:34:49;;;;;;;1.47;1.37;;;18.00;99.90;;;;;;5023855;28;20480;-82
2021/10/03 12:37:18;;;;;;;1.20;1.10;;;17.90;99.90;;;;;;5025152;28;20421;-83
2021/10/03 12:39:46;;;;;;;2.33;2.23;;;17.90;99.90;;;;;;5025365;28;20457;-82
2021/10/03 12:42:15;;;;;;;1.13;1.03;;;18.00;99.90;;;;;;5023561;28;20861;-83
2021/10/03 12:44:44;;;;;;;0.90;0.90;;;18.00;99.90;;;;;;5024888;28;20462;-82
2021/10/03 12:47:13;;;;;;;12.37;1.53;;;18.00;99.90;;;;;;5024022;28;20503;-81
2021/10/03 12:49:40;;;;;;;1.10;1.00;;;18.10;99.90;;;;;;5022859;28;20851;-82
2021/10/03 12:52:10;;;;;;;0.50;0.40;;;18.20;99.90;;;;;;5023279;28;20439;-82
2021/10/03 12:54:37;;;;;;;0.50;0.50;;;18.20;99.90;;;;;;5023083;28;20576;-81
2021/10/03 12:57:06;;;;;;;4.53;0.83;;;18.40;99.90;;;;;;5021495;28;20432;-82
2021/10/03 12:59:33;;;;;;;2.60;0.97;;;18.50;99.90;;;;;;5019011;28;20448;-81